sensor_id;sensor_type;location;lat;lon;timestamp;P1;durP1;ratioP1;P2;durP2;ratioP2
3991;SDS011;2010;48.194;16.394;2023-05-10T00:01:30;3.50;;;3.20;;
3991;SDS011;2010;48.194;16.394;2023-05-10T00:04:03;4.83;;;3.20;;
3991;SDS011;2010;48.194;16.394;2023-05-10T00:06:45;4.10;;;2.83;;
3991;SDS011;2010;48.194;16.394;2023-05-10T00:09:13;2.97;;;2.77;;
3991;SDS011;2010;48.194;16.394;2023-05-10T00:11:50;3.30;;;2.97;;
3991;SDS011;2010;48.194;16.394;2023-05-10T00:14:27;4.90;;;3.20;;
3991;SDS011;2010;48.194;16.394;2023-05-10T00:16:59;3.23;;;3.03;;
3991;SDS011;2010;48.194;16.394;2023-05-10T00:19:29;3.00;;;2.80;;
3991;SDS011;2010;48.194;16.394;2023-05-10T00:22:01;5.60;;;3.43;;
3991;SDS011;2010;48.194;16.394;2023-05-10T00:24:33;3.17;;;2.87;;
3991;SDS011;2010;48.194;16.394;2023-05-10T00:27:03;3.87;;;3.23;;
3991;SDS011;2010;48.194;16.394;2023-05-10T00:29:47;6.97;;;3.67;;
3991;SDS011;2010;48.194;16.394;2023-05-10T00:32:18;3.23;;;2.87;;
3991;SDS011;2010;48.194;16.394;2023-05-10T00:34:49;3.60;;;3.07;;
3991;SDS011;2010;48.194;16.394;2023-05-10T00:37:22;3.03;;;2.83;;
3991;SDS011;2010;48.194;16.394;2023-05-10T00:40:00;4.97;;;3.10;;
3991;SDS011;2010;48.194;16.394;2023-05-10T00:42:31;2.90;;;2.60;;
3991;SDS011;2010;48.194;16.394;2023-05-10T00:45:03;3.23;;;2.90;;
3991;SDS011;2010;48.194;16.394;2023-05-10T00:47:42;7.07;;;3.00;;
3991;SDS011;2010;48.194;16.394;2023-05-10T00:50:17;2.97;;;2.67;;
3991;SDS011;2010;48.194;16.394;2023-05-10T00:52:51;4.33;;;2.93;;
3991;SDS011;2010;48.194;16.394;2023-05-10T00:55:28;3.33;;;3.03;;
3991;SDS011;2010;48.194;16.394;2023-05-10T00:58:01;3.00;;;2.80;;
3991;SDS011;2010;48.194;16.394;2023-05-10T01:00:32;3.13;;;2.90;;
3991;SDS011;2010;48.194;16.394;2023-05-10T01:03:01;3.43;;;2.80;;
3991;SDS011;2010;48.194;16.394;2023-05-10T01:05:31;3.60;;;3.30;;
3991;SDS011;2010;48.194;16.394;2023-05-10T01:08:01;4.03;;;2.90;;
3991;SDS011;2010;48.194;16.394;2023-05-10T01:10:44;3.10;;;2.80;;
3991;SDS011;2010;48.194;16.394;2023-05-10T01:13:18;2.93;;;2.70;;
3991;SDS011;2010;48.194;16.394;2023-05-10T01:16:01;7.27;;;3.30;;
3991;SDS011;2010;48.194;16.394;2023-05-10T01:18:36;4.63;;;3.43;;
3991;SDS011;2010;48.194;16.394;2023-05-10T01:21:19;2.77;;;2.57;;
3991;SDS011;2010;48.194;16.394;2023-05-10T01:24:08;3.47;;;3.10;;
3991;SDS011;2010;48.194;16.394;2023-05-10T01:32:54;4.20;;;3.67;;
3991;SDS011;2010;48.194;16.394;2023-05-10T01:35:30;6.03;;;3.60;;
3991;SDS011;2010;48.194;16.394;2023-05-10T01:38:05;3.23;;;3.03;;
3991;SDS011;2010;48.194;16.394;2023-05-10T01:40:42;5.00;;;3.50;;
3991;SDS011;2010;48.194;16.394;2023-05-10T01:43:19;3.20;;;3.00;;
3991;SDS011;2010;48.194;16.394;2023-05-10T01:45:54;4.30;;;3.10;;
3991;SDS011;2010;48.194;16.394;2023-05-10T01:48:40;3.60;;;3.30;;
3991;SDS011;2010;48.194;16.394;2023-05-10T01:51:19;2.93;;;2.73;;
3991;SDS011;2010;48.194;16.394;2023-05-10T01:54:05;4.13;;;3.27;;
3991;SDS011;2010;48.194;16.394;2023-05-10T01:56:36;3.60;;;3.30;;
3991;SDS011;2010;48.194;16.394;2023-05-10T01:59:06;4.27;;;3.03;;
3991;SDS011;2010;48.194;16.394;2023-05-10T02:01:44;3.20;;;2.90;;
3991;SDS011;2010;48.194;16.394;2023-05-10T02:04:23;3.03;;;2.83;;
3991;SDS011;2010;48.194;16.394;2023-05-10T02:06:55;3.20;;;2.90;;
3991;SDS011;2010;48.194;16.394;2023-05-10T02:09:28;3.53;;;3.30;;
3991;SDS011;2010;48.194;16.394;2023-05-10T02:12:05;4.30;;;3.20;;
3991;SDS011;2010;48.194;16.394;2023-05-10T02:14:37;5.53;;;4.40;;
3991;SDS011;2010;48.194;16.394;2023-05-10T02:17:19;5.70;;;3.60;;
3991;SDS011;2010;48.194;16.394;2023-05-10T02:19:55;3.80;;;3.40;;
3991;SDS011;2010;48.194;16.394;2023-05-10T02:22:28;6.67;;;3.63;;
3991;SDS011;2010;48.194;16.394;2023-05-10T02:25:01;4.23;;;3.37;;
3991;SDS011;2010;48.194;16.394;2023-05-10T02:27:32;3.60;;;3.40;;
3991;SDS011;2010;48.194;16.394;2023-05-10T02:30:02;5.10;;;3.20;;
3991;SDS011;2010;48.194;16.394;2023-05-10T02:32:37;4.07;;;3.73;;
3991;SDS011;2010;48.194;16.394;2023-05-10T02:35:08;4.33;;;3.30;;
3991;SDS011;2010;48.194;16.394;2023-05-10T02:37:41;4.20;;;3.80;;
3991;SDS011;2010;48.194;16.394;2023-05-10T02:40:17;4.90;;;3.80;;
3991;SDS011;2010;48.194;16.394;2023-05-10T02:42:57;3.80;;;3.40;;
3991;SDS011;2010;48.194;16.394;2023-05-10T02:45:31;5.10;;;3.97;;
3991;SDS011;2010;48.194;16.394;2023-05-10T02:48:15;3.80;;;3.50;;
3991;SDS011;2010;48.194;16.394;2023-05-10T02:50:52;6.83;;;4.00;;
3991;SDS011;2010;48.194;16.394;2023-05-10T02:53:31;4.20;;;3.80;;
3991;SDS011;2010;48.194;16.394;2023-05-10T02:56:04;3.57;;;3.27;;
3991;SDS011;2010;48.194;16.394;2023-05-10T02:58:40;4.63;;;4.03;;
3991;SDS011;2010;48.194;16.394;2023-05-10T03:01:09;4.17;;;3.67;;
3991;SDS011;2010;48.194;16.394;2023-05-10T03:03:45;4.53;;;4.00;;
3991;SDS011;2010;48.194;16.394;2023-05-10T03:06:22;3.90;;;3.43;;
3991;SDS011;2010;48.194;16.394;2023-05-10T03:08:51;5.30;;;4.17;;
3991;SDS011;2010;48.194;16.394;2023-05-10T03:11:29;4.40;;;4.00;;
3991;SDS011;2010;48.194;16.394;2023-05-10T03:14:10;5.73;;;3.87;;
3991;SDS011;2010;48.194;16.394;2023-05-10T03:16:45;6.70;;;4.00;;
3991;SDS011;2010;48.194;16.394;2023-05-10T03:19:16;6.40;;;4.00;;
3991;SDS011;2010;48.194;16.394;2023-05-10T03:21:58;5.93;;;4.00;;
3991;SDS011;2010;48.194;16.394;2023-05-10T03:24:35;6.63;;;4.10;;
3991;SDS011;2010;48.194;16.394;2023-05-10T03:27:16;5.00;;;4.33;;
3991;SDS011;2010;48.194;16.394;2023-05-10T03:29:46;5.27;;;3.90;;
3991;SDS011;2010;48.194;16.394;2023-05-10T03:32:24;5.43;;;4.10;;
3991;SDS011;2010;48.194;16.394;2023-05-10T03:34:57;4.23;;;3.73;;
3991;SDS011;2010;48.194;16.394;2023-05-10T03:37:32;4.13;;;3.80;;
3991;SDS011;2010;48.194;16.394;2023-05-10T03:40:07;4.53;;;4.00;;
3991;SDS011;2010;48.194;16.394;2023-05-10T03:42:43;5.40;;;4.00;;
3991;SDS011;2010;48.194;16.394;2023-05-10T03:45:12;6.40;;;4.57;;
3991;SDS011;2010;48.194;16.394;2023-05-10T03:47:41;5.37;;;3.73;;
3991;SDS011;2010;48.194;16.394;2023-05-10T03:50:09;4.00;;;3.70;;
3991;SDS011;2010;48.194;16.394;2023-05-10T03:52:53;4.87;;;4.40;;
3991;SDS011;2010;48.194;16.394;2023-05-10T03:55:23;7.03;;;4.20;;
3991;SDS011;2010;48.194;16.394;2023-05-10T03:57:56;3.83;;;3.53;;
3991;SDS011;2010;48.194;16.394;2023-05-10T04:00:29;4.73;;;4.23;;
3991;SDS011;2010;48.194;16.394;2023-05-10T04:03:01;5.03;;;3.87;;
3991;SDS011;2010;48.194;16.394;2023-05-10T04:05:33;4.50;;;4.10;;
3991;SDS011;2010;48.194;16.394;2023-05-10T04:08:05;4.50;;;4.10;;
3991;SDS011;2010;48.194;16.394;2023-05-10T04:10:36;4.83;;;4.33;;
3991;SDS011;2010;48.194;16.394;2023-05-10T04:13:08;7.10;;;3.90;;
3991;SDS011;2010;48.194;16.394;2023-05-10T04:15:36;4.47;;;4.07;;
3991;SDS011;2010;48.194;16.394;2023-05-10T04:18:05;5.53;;;4.90;;
3991;SDS011;2010;48.194;16.394;2023-05-10T04:20:43;4.40;;;4.10;;
3991;SDS011;2010;48.194;16.394;2023-05-10T04:23:20;4.87;;;3.80;;
3991;SDS011;2010;48.194;16.394;2023-05-10T04:25:49;4.50;;;4.10;;
3991;SDS011;2010;48.194;16.394;2023-05-10T04:28:18;4.07;;;3.60;;
3991;SDS011;2010;48.194;16.394;2023-05-10T04:30:47;4.63;;;4.00;;
3991;SDS011;2010;48.194;16.394;2023-05-10T04:33:21;4.10;;;3.77;;
3991;SDS011;2010;48.194;16.394;2023-05-10T04:35:50;4.80;;;3.80;;
3991;SDS011;2010;48.194;16.394;2023-05-10T04:38:20;6.13;;;5.10;;
3991;SDS011;2010;48.194;16.394;2023-05-10T04:40:50;6.33;;;4.30;;
3991;SDS011;2010;48.194;16.394;2023-05-10T04:43:19;5.50;;;4.97;;
3991;SDS011;2010;48.194;16.394;2023-05-10T04:45:48;5.20;;;4.40;;
3991;SDS011;2010;48.194;16.394;2023-05-10T04:48:20;5.10;;;4.57;;
3991;SDS011;2010;48.194;16.394;2023-05-10T04:50:51;10.00;;;5.53;;
3991;SDS011;2010;48.194;16.394;2023-05-10T04:53:27;8.53;;;5.00;;
3991;SDS011;2010;48.194;16.394;2023-05-10T04:55:58;5.87;;;4.97;;
3991;SDS011;2010;48.194;16.394;2023-05-10T04:58:28;5.60;;;5.00;;
3991;SDS011;2010;48.194;16.394;2023-05-10T05:01:04;6.40;;;5.23;;
3991;SDS011;2010;48.194;16.394;2023-05-10T05:03:41;7.23;;;5.17;;
3991;SDS011;2010;48.194;16.394;2023-05-10T05:06:14;10.93;;;5.80;;
3991;SDS011;2010;48.194;16.394;2023-05-10T05:08:52;9.43;;;5.27;;
3991;SDS011;2010;48.194;16.394;2023-05-10T05:11:24;5.63;;;4.63;;
3991;SDS011;2010;48.194;16.394;2023-05-10T05:13:53;5.20;;;4.70;;
3991;SDS011;2010;48.194;16.394;2023-05-10T05:16:25;6.97;;;5.00;;
3991;SDS011;2010;48.194;16.394;2023-05-10T05:18:56;9.80;;;5.20;;
3991;SDS011;2010;48.194;16.394;2023-05-10T05:21:31;6.63;;;4.93;;
3991;SDS011;2010;48.194;16.394;2023-05-10T05:24:16;4.90;;;4.30;;
3991;SDS011;2010;48.194;16.394;2023-05-10T05:26:53;5.27;;;4.80;;
3991;SDS011;2010;48.194;16.394;2023-05-10T05:29:25;10.03;;;5.20;;
3991;SDS011;2010;48.194;16.394;2023-05-10T05:31:56;8.50;;;4.23;;
3991;SDS011;2010;48.194;16.394;2023-05-10T05:34:31;7.87;;;4.60;;
3991;SDS011;2010;48.194;16.394;2023-05-10T05:37:06;6.20;;;4.63;;
3991;SDS011;2010;48.194;16.394;2023-05-10T05:39:41;6.00;;;4.67;;
3991;SDS011;2010;48.194;16.394;2023-05-10T05:42:12;5.23;;;4.70;;
3991;SDS011;2010;48.194;16.394;2023-05-10T05:44:46;10.90;;;4.80;;
3991;SDS011;2010;48.194;16.394;2023-05-10T05:47:15;5.30;;;4.20;;
3991;SDS011;2010;48.194;16.394;2023-05-10T05:49:47;4.93;;;4.43;;
3991;SDS011;2010;48.194;16.394;2023-05-10T05:52:16;8.93;;;4.90;;
3991;SDS011;2010;48.194;16.394;2023-05-10T05:54:54;5.00;;;3.73;;
3991;SDS011;2010;48.194;16.394;2023-05-10T05:57:27;7.67;;;4.87;;
3991;SDS011;2010;48.194;16.394;2023-05-10T05:59:58;5.43;;;4.93;;
3991;SDS011;2010;48.194;16.394;2023-05-10T06:02:41;5.63;;;4.57;;
3991;SDS011;2010;48.194;16.394;2023-05-10T06:05:10;5.43;;;4.07;;
3991;SDS011;2010;48.194;16.394;2023-05-10T06:07:42;9.63;;;5.27;;
3991;SDS011;2010;48.194;16.394;2023-05-10T06:10:14;8.03;;;4.70;;
3991;SDS011;2010;48.194;16.394;2023-05-10T06:12:43;4.37;;;3.97;;
3991;SDS011;2010;48.194;16.394;2023-05-10T06:15:14;8.83;;;4.90;;
3991;SDS011;2010;48.194;16.394;2023-05-10T06:17:46;7.33;;;3.87;;
3991;SDS011;2010;48.194;16.394;2023-05-10T06:20:16;3.73;;;3.43;;
3991;SDS011;2010;48.194;16.394;2023-05-10T06:22:53;6.23;;;4.37;;
3991;SDS011;2010;48.194;16.394;2023-05-10T06:25:28;8.17;;;4.40;;
3991;SDS011;2010;48.194;16.394;2023-05-10T06:28:00;4.27;;;3.87;;
3991;SDS011;2010;48.194;16.394;2023-05-10T06:30:35;6.97;;;4.13;;
3991;SDS011;2010;48.194;16.394;2023-05-10T06:33:10;5.87;;;5.00;;
3991;SDS011;2010;48.194;16.394;2023-05-10T06:35:46;5.60;;;4.60;;
3991;SDS011;2010;48.194;16.394;2023-05-10T06:38:17;3.70;;;3.37;;
3991;SDS011;2010;48.194;16.394;2023-05-10T06:40:50;7.70;;;4.37;;
3991;SDS011;2010;48.194;16.394;2023-05-10T06:43:25;5.57;;;4.00;;
3991;SDS011;2010;48.194;16.394;2023-05-10T06:45:55;6.07;;;4.20;;
3991;SDS011;2010;48.194;16.394;2023-05-10T06:48:28;7.90;;;4.60;;
3991;SDS011;2010;48.194;16.394;2023-05-10T06:51:00;4.23;;;3.70;;
3991;SDS011;2010;48.194;16.394;2023-05-10T06:53:28;4.40;;;4.00;;
3991;SDS011;2010;48.194;16.394;2023-05-10T06:56:06;4.77;;;3.73;;
3991;SDS011;2010;48.194;16.394;2023-05-10T06:58:37;8.10;;;4.33;;
3991;SDS011;2010;48.194;16.394;2023-05-10T07:01:08;7.93;;;4.00;;
3991;SDS011;2010;48.194;16.394;2023-05-10T07:03:38;5.63;;;4.23;;
3991;SDS011;2010;48.194;16.394;2023-05-10T07:06:19;5.17;;;4.53;;
3991;SDS011;2010;48.194;16.394;2023-05-10T07:09:03;4.80;;;4.10;;
3991;SDS011;2010;48.194;16.394;2023-05-10T07:11:38;6.93;;;5.13;;
3991;SDS011;2010;48.194;16.394;2023-05-10T07:14:06;6.80;;;4.10;;
3991;SDS011;2010;48.194;16.394;2023-05-10T07:16:34;5.23;;;4.50;;
3991;SDS011;2010;48.194;16.394;2023-05-10T07:19:05;4.80;;;4.20;;
3991;SDS011;2010;48.194;16.394;2023-05-10T07:21:37;3.97;;;3.67;;
3991;SDS011;2010;48.194;16.394;2023-05-10T07:24:07;5.93;;;4.80;;
3991;SDS011;2010;48.194;16.394;2023-05-10T07:26:39;8.20;;;5.00;;
3991;SDS011;2010;48.194;16.394;2023-05-10T07:29:09;4.53;;;4.00;;
3991;SDS011;2010;48.194;16.394;2023-05-10T07:31:42;4.10;;;3.70;;
3991;SDS011;2010;48.194;16.394;2023-05-10T07:34:11;4.80;;;4.40;;
3991;SDS011;2010;48.194;16.394;2023-05-10T07:36:42;6.90;;;5.40;;
3991;SDS011;2010;48.194;16.394;2023-05-10T07:39:11;5.17;;;4.67;;
3991;SDS011;2010;48.194;16.394;2023-05-10T07:42:16;6.00;;;4.70;;
3991;SDS011;2010;48.194;16.394;2023-05-10T07:44:45;6.40;;;4.60;;
3991;SDS011;2010;48.194;16.394;2023-05-10T07:47:15;7.63;;;5.57;;
3991;SDS011;2010;48.194;16.394;2023-05-10T07:49:47;5.50;;;4.67;;
3991;SDS011;2010;48.194;16.394;2023-05-10T07:52:24;4.77;;;4.37;;
3991;SDS011;2010;48.194;16.394;2023-05-10T07:55:00;5.67;;;4.97;;
3991;SDS011;2010;48.194;16.394;2023-05-10T07:57:33;5.97;;;4.97;;
3991;SDS011;2010;48.194;16.394;2023-05-10T08:00:04;5.83;;;5.00;;
3991;SDS011;2010;48.194;16.394;2023-05-10T08:02:44;5.17;;;4.70;;
3991;SDS011;2010;48.194;16.394;2023-05-10T08:05:17;7.37;;;5.57;;
3991;SDS011;2010;48.194;16.394;2023-05-10T08:07:53;5.93;;;5.33;;
3991;SDS011;2010;48.194;16.394;2023-05-10T08:10:24;8.07;;;5.40;;
3991;SDS011;2010;48.194;16.394;2023-05-10T08:12:54;5.63;;;4.70;;
3991;SDS011;2010;48.194;16.394;2023-05-10T08:15:26;5.23;;;4.73;;
3991;SDS011;2010;48.194;16.394;2023-05-10T08:18:01;4.77;;;4.47;;
3991;SDS011;2010;48.194;16.394;2023-05-10T08:20:32;5.90;;;4.67;;
3991;SDS011;2010;48.194;16.394;2023-05-10T08:23:02;5.23;;;4.57;;
3991;SDS011;2010;48.194;16.394;2023-05-10T08:25:32;4.40;;;4.00;;
3991;SDS011;2010;48.194;16.394;2023-05-10T08:28:04;11.30;;;4.00;;
3991;SDS011;2010;48.194;16.394;2023-05-10T08:30:40;4.50;;;4.10;;
3991;SDS011;2010;48.194;16.394;2023-05-10T08:33:14;4.93;;;3.70;;
3991;SDS011;2010;48.194;16.394;2023-05-10T08:35:46;4.13;;;3.83;;
3991;SDS011;2010;48.194;16.394;2023-05-10T08:38:17;6.20;;;3.03;;
3991;SDS011;2010;48.194;16.394;2023-05-10T08:40:50;5.57;;;4.40;;
3991;SDS011;2010;48.194;16.394;2023-05-10T08:43:27;7.60;;;4.63;;
3991;SDS011;2010;48.194;16.394;2023-05-10T08:45:59;6.23;;;4.20;;
3991;SDS011;2010;48.194;16.394;2023-05-10T08:48:29;4.23;;;3.93;;
3991;SDS011;2010;48.194;16.394;2023-05-10T08:50:59;11.40;;;4.30;;
3991;SDS011;2010;48.194;16.394;2023-05-10T08:53:29;6.90;;;3.23;;
3991;SDS011;2010;48.194;16.394;2023-05-10T08:56:12;4.57;;;3.33;;
3991;SDS011;2010;48.194;16.394;2023-05-10T08:58:46;4.47;;;3.50;;
3991;SDS011;2010;48.194;16.394;2023-05-10T09:01:20;3.47;;;3.17;;
3991;SDS011;2010;48.194;16.394;2023-05-10T09:03:56;3.13;;;2.83;;
3991;SDS011;2010;48.194;16.394;2023-05-10T09:06:34;3.20;;;2.90;;
3991;SDS011;2010;48.194;16.394;2023-05-10T09:09:03;6.97;;;3.00;;
3991;SDS011;2010;48.194;16.394;2023-05-10T09:11:31;3.70;;;2.70;;
3991;SDS011;2010;48.194;16.394;2023-05-10T09:14:06;3.20;;;2.83;;
3991;SDS011;2010;48.194;16.394;2023-05-10T09:16:45;4.90;;;4.40;;
3991;SDS011;2010;48.194;16.394;2023-05-10T09:19:15;12.83;;;5.03;;
3991;SDS011;2010;48.194;16.394;2023-05-10T09:21:46;17.33;;;9.10;;
3991;SDS011;2010;48.194;16.394;2023-05-10T09:24:16;11.67;;;3.83;;
3991;SDS011;2010;48.194;16.394;2023-05-10T09:26:57;5.93;;;2.67;;
3991;SDS011;2010;48.194;16.394;2023-05-10T09:29:40;4.87;;;2.30;;
3991;SDS011;2010;48.194;16.394;2023-05-10T09:32:13;4.73;;;2.40;;
3991;SDS011;2010;48.194;16.394;2023-05-10T09:34:49;5.00;;;2.13;;
3991;SDS011;2010;48.194;16.394;2023-05-10T09:37:20;4.70;;;2.07;;
3991;SDS011;2010;48.194;16.394;2023-05-10T09:40:06;3.07;;;1.97;;
3991;SDS011;2010;48.194;16.394;2023-05-10T09:42:43;2.50;;;2.30;;
3991;SDS011;2010;48.194;16.394;2023-05-10T09:45:22;3.80;;;2.27;;
3991;SDS011;2010;48.194;16.394;2023-05-10T09:47:52;5.50;;;1.80;;
3991;SDS011;2010;48.194;16.394;2023-05-10T09:50:21;4.57;;;1.60;;
3991;SDS011;2010;48.194;16.394;2023-05-10T09:52:50;2.67;;;1.73;;
3991;SDS011;2010;48.194;16.394;2023-05-10T09:55:20;3.77;;;1.43;;
3991;SDS011;2010;48.194;16.394;2023-05-10T09:57:58;6.50;;;1.40;;
3991;SDS011;2010;48.194;16.394;2023-05-10T10:00:35;5.70;;;1.40;;
3991;SDS011;2010;48.194;16.394;2023-05-10T10:03:11;2.40;;;1.60;;
3991;SDS011;2010;48.194;16.394;2023-05-10T10:05:44;6.37;;;1.60;;
3991;SDS011;2010;48.194;16.394;2023-05-10T10:08:23;4.17;;;1.57;;
3991;SDS011;2010;48.194;16.394;2023-05-10T10:10:53;1.30;;;1.20;;
3991;SDS011;2010;48.194;16.394;2023-05-10T10:13:25;2.70;;;1.93;;
3991;SDS011;2010;48.194;16.394;2023-05-10T10:16:08;2.40;;;1.77;;
3991;SDS011;2010;48.194;16.394;2023-05-10T10:18:41;8.50;;;2.00;;
3991;SDS011;2010;48.194;16.394;2023-05-10T10:21:20;4.10;;;1.60;;
3991;SDS011;2010;48.194;16.394;2023-05-10T10:23:51;1.53;;;1.43;;
3991;SDS011;2010;48.194;16.394;2023-05-10T10:26:21;5.33;;;1.40;;
3991;SDS011;2010;48.194;16.394;2023-05-10T10:28:56;1.30;;;1.20;;
3991;SDS011;2010;48.194;16.394;2023-05-10T10:31:36;2.50;;;1.40;;
3991;SDS011;2010;48.194;16.394;2023-05-10T10:34:10;1.83;;;1.70;;
3991;SDS011;2010;48.194;16.394;2023-05-10T10:36:40;1.60;;;1.50;;
3991;SDS011;2010;48.194;16.394;2023-05-10T10:39:20;1.37;;;1.27;;
3991;SDS011;2010;48.194;16.394;2023-05-10T10:41:50;1.87;;;1.50;;
3991;SDS011;2010;48.194;16.394;2023-05-10T10:44:39;3.87;;;1.60;;
3991;SDS011;2010;48.194;16.394;2023-05-10T10:47:27;4.50;;;2.00;;
3991;SDS011;2010;48.194;16.394;2023-05-10T10:50:05;2.30;;;1.60;;
3991;SDS011;2010;48.194;16.394;2023-05-10T10:52:41;7.07;;;1.90;;
3991;SDS011;2010;48.194;16.394;2023-05-10T10:55:11;4.40;;;1.70;;
3991;SDS011;2010;48.194;16.394;2023-05-10T10:57:46;1.80;;;1.70;;
3991;SDS011;2010;48.194;16.394;2023-05-10T11:03:08;3.70;;;1.77;;
3991;SDS011;2010;48.194;16.394;2023-05-10T11:05:50;1.63;;;1.53;;
3991;SDS011;2010;48.194;16.394;2023-05-10T11:08:20;3.97;;;1.63;;
3991;SDS011;2010;48.194;16.394;2023-05-10T11:11:05;4.30;;;1.93;;
3991;SDS011;2010;48.194;16.394;2023-05-10T11:13:42;1.70;;;1.60;;
3991;SDS011;2010;48.194;16.394;2023-05-10T11:16:22;1.87;;;1.77;;
3991;SDS011;2010;48.194;16.394;2023-05-10T11:19:01;3.60;;;1.67;;
3991;SDS011;2010;48.194;16.394;2023-05-10T11:21:33;3.40;;;1.80;;
3991;SDS011;2010;48.194;16.394;2023-05-10T11:24:02;8.43;;;2.10;;
3991;SDS011;2010;48.194;16.394;2023-05-10T11:26:35;2.67;;;1.63;;
3991;SDS011;2010;48.194;16.394;2023-05-10T11:29:07;1.93;;;1.20;;
3991;SDS011;2010;48.194;16.394;2023-05-10T11:31:42;6.53;;;1.97;;
3991;SDS011;2010;48.194;16.394;2023-05-10T11:34:24;3.23;;;1.57;;
3991;SDS011;2010;48.194;16.394;2023-05-10T11:36:54;6.40;;;1.93;;
3991;SDS011;2010;48.194;16.394;2023-05-10T11:39:26;2.83;;;1.23;;
3991;SDS011;2010;48.194;16.394;2023-05-10T11:42:00;2.97;;;1.40;;
3991;SDS011;2010;48.194;16.394;2023-05-10T11:44:29;2.93;;;1.80;;
3991;SDS011;2010;48.194;16.394;2023-05-10T11:46:59;2.10;;;1.80;;
3991;SDS011;2010;48.194;16.394;2023-05-10T11:49:42;3.00;;;1.57;;
3991;SDS011;2010;48.194;16.394;2023-05-10T11:52:15;2.43;;;1.70;;
3991;SDS011;2010;48.194;16.394;2023-05-10T11:54:57;2.13;;;1.93;;
3991;SDS011;2010;48.194;16.394;2023-05-10T11:57:27;1.53;;;1.20;;
3991;SDS011;2010;48.194;16.394;2023-05-10T11:59:59;2.40;;;1.30;;
3991;SDS011;2010;48.194;16.394;2023-05-10T12:02:33;2.77;;;1.47;;
3991;SDS011;2010;48.194;16.394;2023-05-10T12:05:20;3.73;;;1.57;;
3991;SDS011;2010;48.194;16.394;2023-05-10T12:07:49;2.40;;;1.80;;
3991;SDS011;2010;48.194;16.394;2023-05-10T12:10:25;4.00;;;1.30;;
3991;SDS011;2010;48.194;16.394;2023-05-10T12:12:54;2.90;;;1.40;;
3991;SDS011;2010;48.194;16.394;2023-05-10T12:15:29;2.77;;;2.07;;
3991;SDS011;2010;48.194;16.394;2023-05-10T12:17:57;4.30;;;1.37;;
3991;SDS011;2010;48.194;16.394;2023-05-10T12:20:31;2.13;;;1.63;;
3991;SDS011;2010;48.194;16.394;2023-05-10T12:23:02;2.30;;;1.20;;
3991;SDS011;2010;48.194;16.394;2023-05-10T12:25:33;3.63;;;1.57;;
3991;SDS011;2010;48.194;16.394;2023-05-10T12:28:05;4.70;;;1.50;;
3991;SDS011;2010;48.194;16.394;2023-05-10T12:30:37;4.07;;;1.50;;
3991;SDS011;2010;48.194;16.394;2023-05-10T12:33:17;1.60;;;1.40;;
3991;SDS011;2010;48.194;16.394;2023-05-10T12:35:58;1.60;;;1.50;;
3991;SDS011;2010;48.194;16.394;2023-05-10T12:38:28;2.07;;;1.20;;
3991;SDS011;2010;48.194;16.394;2023-05-10T12:40:59;1.70;;;1.30;;
3991;SDS011;2010;48.194;16.394;2023-05-10T12:43:38;3.17;;;1.50;;
3991;SDS011;2010;48.194;16.394;2023-05-10T12:46:10;1.83;;;1.50;;
3991;SDS011;2010;48.194;16.394;2023-05-10T12:48:43;2.20;;;1.30;;
3991;SDS011;2010;48.194;16.394;2023-05-10T12:51:14;1.80;;;1.40;;
3991;SDS011;2010;48.194;16.394;2023-05-10T12:53:46;1.77;;;1.63;;
3991;SDS011;2010;48.194;16.394;2023-05-10T12:56:17;7.40;;;1.50;;
3991;SDS011;2010;48.194;16.394;2023-05-10T12:58:48;1.83;;;1.73;;
3991;SDS011;2010;48.194;16.394;2023-05-10T13:01:29;3.43;;;1.80;;
3991;SDS011;2010;48.194;16.394;2023-05-10T13:03:59;3.43;;;1.73;;
3991;SDS011;2010;48.194;16.394;2023-05-10T13:06:32;2.70;;;1.73;;
3991;SDS011;2010;48.194;16.394;2023-05-10T13:09:03;2.00;;;1.63;;
3991;SDS011;2010;48.194;16.394;2023-05-10T13:11:40;3.57;;;1.97;;
3991;SDS011;2010;48.194;16.394;2023-05-10T13:14:09;9.37;;;2.00;;
3991;SDS011;2010;48.194;16.394;2023-05-10T13:16:42;2.63;;;1.70;;
3991;SDS011;2010;48.194;16.394;2023-05-10T13:19:10;2.10;;;1.67;;
3991;SDS011;2010;48.194;16.394;2023-05-10T13:21:46;3.30;;;2.13;;
3991;SDS011;2010;48.194;16.394;2023-05-10T13:24:18;3.40;;;2.00;;
3991;SDS011;2010;48.194;16.394;2023-05-10T13:26:51;4.20;;;1.83;;
3991;SDS011;2010;48.194;16.394;2023-05-10T13:29:25;9.60;;;1.77;;
3991;SDS011;2010;48.194;16.394;2023-05-10T13:31:58;1.90;;;1.80;;
3991;SDS011;2010;48.194;16.394;2023-05-10T13:34:34;1.80;;;1.57;;
3991;SDS011;2010;48.194;16.394;2023-05-10T13:37:09;1.83;;;1.73;;
3991;SDS011;2010;48.194;16.394;2023-05-10T13:39:39;2.07;;;1.97;;
3991;SDS011;2010;48.194;16.394;2023-05-10T13:42:08;2.60;;;1.73;;
3991;SDS011;2010;48.194;16.394;2023-05-10T13:44:36;2.23;;;1.90;;
3991;SDS011;2010;48.194;16.394;2023-05-10T13:47:07;1.67;;;1.57;;
3991;SDS011;2010;48.194;16.394;2023-05-10T13:49:38;6.10;;;1.63;;
3991;SDS011;2010;48.194;16.394;2023-05-10T13:52:19;2.37;;;1.60;;
3991;SDS011;2010;48.194;16.394;2023-05-10T13:54:52;2.50;;;1.50;;
3991;SDS011;2010;48.194;16.394;2023-05-10T13:57:29;5.77;;;1.60;;
3991;SDS011;2010;48.194;16.394;2023-05-10T13:59:58;1.97;;;1.73;;
3991;SDS011;2010;48.194;16.394;2023-05-10T14:02:26;4.50;;;1.50;;
3991;SDS011;2010;48.194;16.394;2023-05-10T14:04:56;2.20;;;2.00;;
3991;SDS011;2010;48.194;16.394;2023-05-10T14:07:36;1.93;;;1.80;;
3991;SDS011;2010;48.194;16.394;2023-05-10T14:10:06;1.53;;;1.43;;
3991;SDS011;2010;48.194;16.394;2023-05-10T14:12:40;4.03;;;1.80;;
3991;SDS011;2010;48.194;16.394;2023-05-10T14:15:10;1.87;;;1.70;;
3991;SDS011;2010;48.194;16.394;2023-05-10T14:17:39;2.93;;;1.50;;
3991;SDS011;2010;48.194;16.394;2023-05-10T14:20:11;1.90;;;1.57;;
3991;SDS011;2010;48.194;16.394;2023-05-10T14:22:50;1.80;;;1.70;;
3991;SDS011;2010;48.194;16.394;2023-05-10T14:25:22;1.63;;;1.53;;
3991;SDS011;2010;48.194;16.394;2023-05-10T14:27:54;2.10;;;1.47;;
3991;SDS011;2010;48.194;16.394;2023-05-10T14:30:25;3.70;;;1.87;;
3991;SDS011;2010;48.194;16.394;2023-05-10T14:33:02;2.50;;;1.70;;
3991;SDS011;2010;48.194;16.394;2023-05-10T14:35:34;3.23;;;1.50;;
3991;SDS011;2010;48.194;16.394;2023-05-10T14:38:07;1.50;;;1.40;;
3991;SDS011;2010;48.194;16.394;2023-05-10T14:40:37;1.53;;;1.43;;
3991;SDS011;2010;48.194;16.394;2023-05-10T14:43:13;1.57;;;1.57;;
3991;SDS011;2010;48.194;16.394;2023-05-10T14:45:44;2.37;;;1.70;;
3991;SDS011;2010;48.194;16.394;2023-05-10T14:48:15;1.47;;;1.37;;
3991;SDS011;2010;48.194;16.394;2023-05-10T14:50:54;3.90;;;1.50;;
3991;SDS011;2010;48.194;16.394;2023-05-10T14:53:29;1.60;;;1.50;;
3991;SDS011;2010;48.194;16.394;2023-05-10T14:55:58;1.27;;;1.23;;
3991;SDS011;2010;48.194;16.394;2023-05-10T14:58:28;1.27;;;1.17;;
3991;SDS011;2010;48.194;16.394;2023-05-10T15:01:00;1.20;;;1.20;;
3991;SDS011;2010;48.194;16.394;2023-05-10T15:03:36;1.43;;;1.43;;
3991;SDS011;2010;48.194;16.394;2023-05-10T15:06:14;1.60;;;1.33;;
3991;SDS011;2010;48.194;16.394;2023-05-10T15:08:52;1.67;;;1.43;;
3991;SDS011;2010;48.194;16.394;2023-05-10T15:11:23;2.63;;;1.70;;
3991;SDS011;2010;48.194;16.394;2023-05-10T15:13:55;2.30;;;1.50;;
3991;SDS011;2010;48.194;16.394;2023-05-10T15:16:26;2.93;;;1.37;;
3991;SDS011;2010;48.194;16.394;2023-05-10T15:19:01;1.57;;;1.20;;
3991;SDS011;2010;48.194;16.394;2023-05-10T15:21:30;2.50;;;1.20;;
3991;SDS011;2010;48.194;16.394;2023-05-10T15:24:08;1.63;;;1.00;;
3991;SDS011;2010;48.194;16.394;2023-05-10T15:26:38;1.57;;;1.47;;
3991;SDS011;2010;48.194;16.394;2023-05-10T15:29:07;2.27;;;1.17;;
3991;SDS011;2010;48.194;16.394;2023-05-10T15:31:36;1.20;;;1.20;;
3991;SDS011;2010;48.194;16.394;2023-05-10T15:34:06;1.50;;;1.40;;
3991;SDS011;2010;48.194;16.394;2023-05-10T15:36:35;3.57;;;1.77;;
3991;SDS011;2010;48.194;16.394;2023-05-10T15:39:04;1.90;;;1.33;;
3991;SDS011;2010;48.194;16.394;2023-05-10T15:41:39;1.40;;;1.17;;
3991;SDS011;2010;48.194;16.394;2023-05-10T15:44:08;1.40;;;1.30;;
3991;SDS011;2010;48.194;16.394;2023-05-10T15:46:38;3.60;;;1.73;;
3991;SDS011;2010;48.194;16.394;2023-05-10T15:49:09;2.57;;;1.70;;